sensor_id;sensor_type;location;lat;lon;timestamp;temperature;humidity
43673;DHT22;41723;49.326;8.430;2023-12-04T00:01:52;0.70;99.90
43673;DHT22;41723;49.326;8.430;2023-12-04T00:04:18;0.70;99.90
43673;DHT22;41723;49.326;8.430;2023-12-04T00:06:44;0.60;99.90
43673;DHT22;41723;49.326;8.430;2023-12-04T00:09:09;0.50;99.90
43673;DHT22;41723;49.326;8.430;2023-12-04T00:11:35;0.50;99.90
43673;DHT22;41723;49.326;8.430;2023-12-04T00:14:00;0.50;99.90
43673;DHT22;41723;49.326;8.430;2023-12-04T00:16:26;0.50;99.90
43673;DHT22;41723;49.326;8.430;2023-12-04T00:18:52;0.40;99.90
43673;DHT22;41723;49.326;8.430;2023-12-04T00:21:17;0.30;99.90
43673;DHT22;41723;49.326;8.430;2023-12-04T00:23:43;0.40;99.90
43673;DHT22;41723;49.326;8.430;2023-12-04T00:26:09;0.40;99.90
43673;DHT22;41723;49.326;8.430;2023-12-04T00:28:37;0.50;99.90
43673;DHT22;41723;49.326;8.430;2023-12-04T00:31:03;0.50;99.90
43673;DHT22;41723;49.326;8.430;2023-12-04T00:33:29;0.60;99.90
43673;DHT22;41723;49.326;8.430;2023-12-04T00:35:54;0.60;99.90
43673;DHT22;41723;49.326;8.430;2023-12-04T00:38:20;0.70;99.90
43673;DHT22;41723;49.326;8.430;2023-12-04T00:40:45;0.60;99.90
43673;DHT22;41723;49.326;8.430;2023-12-04T00:43:11;0.70;99.90
43673;DHT22;41723;49.326;8.430;2023-12-04T00:45:37;0.60;99.90
43673;DHT22;41723;49.326;8.430;2023-12-04T00:48:02;0.50;99.90
43673;DHT22;41723;49.326;8.430;2023-12-04T00:50:28;0.40;99.90
43673;DHT22;41723;49.326;8.430;2023-12-04T00:52:53;0.50;99.90
43673;DHT22;41723;49.326;8.430;2023-12-04T00:55:19;0.50;99.90
43673;DHT22;41723;49.326;8.430;2023-12-04T00:57:45;0.40;99.90
43673;DHT22;41723;49.326;8.430;2023-12-04T01:00:11;0.40;99.90
43673;DHT22;41723;49.326;8.430;2023-12-04T01:02:37;0.30;99.90
43673;DHT22;41723;49.326;8.430;2023-12-04T01:05:02;0.40;99.90
43673;DHT22;41723;49.326;8.430;2023-12-04T01:07:28;0.40;99.90
43673;DHT22;41723;49.326;8.430;2023-12-04T01:09:54;0.40;99.90
43673;DHT22;41723;49.326;8.430;2023-12-04T01:12:20;0.50;99.90
43673;DHT22;41723;49.326;8.430;2023-12-04T01:14:46;0.40;99.90
43673;DHT22;41723;49.326;8.430;2023-12-04T01:17:12;0.40;99.90
43673;DHT22;41723;49.326;8.430;2023-12-04T01:19:37;0.40;99.90
43673;DHT22;41723;49.326;8.430;2023-12-04T01:22:04;0.60;99.90
43673;DHT22;41723;49.326;8.430;2023-12-04T01:24:30;0.60;99.90
43673;DHT22;41723;49.326;8.430;2023-12-04T01:26:56;0.60;99.90
43673;DHT22;41723;49.326;8.430;2023-12-04T01:29:21;0.60;99.90
43673;DHT22;41723;49.326;8.430;2023-12-04T01:31:47;0.40;99.90
43673;DHT22;41723;49.326;8.430;2023-12-04T01:34:13;0.50;99.90
43673;DHT22;41723;49.326;8.430;2023-12-04T01:36:41;0.40;99.90
43673;DHT22;41723;49.326;8.430;2023-12-04T01:39:07;0.40;99.90
43673;DHT22;41723;49.326;8.430;2023-12-04T01:41:33;0.50;99.90
43673;DHT22;41723;49.326;8.430;2023-12-04T01:43:58;0.50;99.90
43673;DHT22;41723;49.326;8.430;2023-12-04T01:46:24;0.50;99.90
43673;DHT22;41723;49.326;8.430;2023-12-04T01:48:50;0.60;99.90
43673;DHT22;41723;49.326;8.430;2023-12-04T01:51:16;0.60;99.90
43673;DHT22;41723;49.326;8.430;2023-12-04T01:53:42;0.50;99.90
43673;DHT22;41723;49.326;8.430;2023-12-04T01:56:08;0.50;99.90
43673;DHT22;41723;49.326;8.430;2023-12-04T01:58:34;0.50;99.90
43673;DHT22;41723;49.326;8.430;2023-12-04T02:00:59;0.50;99.90
43673;DHT22;41723;49.326;8.430;2023-12-04T02:03:25;0.50;99.90
43673;DHT22;41723;49.326;8.430;2023-12-04T02:05:51;0.60;99.90
43673;DHT22;41723;49.326;8.430;2023-12-04T02:08:16;0.60;99.90
43673;DHT22;41723;49.326;8.430;2023-12-04T02:10:42;0.50;99.90
43673;DHT22;41723;49.326;8.430;2023-12-04T02:13:08;0.60;99.90
43673;DHT22;41723;49.326;8.430;2023-12-04T02:15:34;0.60;99.90
43673;DHT22;41723;49.326;8.430;2023-12-04T02:18:00;0.70;99.90
43673;DHT22;41723;49.326;8.430;2023-12-04T02:20:32;0.60;99.90
43673;DHT22;41723;49.326;8.430;2023-12-04T02:23:01;0.60;99.90
43673;DHT22;41723;49.326;8.430;2023-12-04T02:25:27;0.50;99.90
43673;DHT22;41723;49.326;8.430;2023-12-04T02:27:52;0.40;99.90
43673;DHT22;41723;49.326;8.430;2023-12-04T02:30:19;0.50;99.90
43673;DHT22;41723;49.326;8.430;2023-12-04T02:32:46;0.50;99.90
43673;DHT22;41723;49.326;8.430;2023-12-04T02:35:13;0.50;99.90
43673;DHT22;41723;49.326;8.430;2023-12-04T02:37:42;0.60;99.90
43673;DHT22;41723;49.326;8.430;2023-12-04T02:40:08;0.40;99.90
43673;DHT22;41723;49.326;8.430;2023-12-04T02:42:35;0.40;99.90
43673;DHT22;41723;49.326;8.430;2023-12-04T02:45:01;0.40;99.90
43673;DHT22;41723;49.326;8.430;2023-12-04T02:47:27;0.50;99.90
43673;DHT22;41723;49.326;8.430;2023-12-04T02:49:52;0.50;99.90
43673;DHT22;41723;49.326;8.430;2023-12-04T02:52:18;0.40;99.90
43673;DHT22;41723;49.326;8.430;2023-12-04T02:54:44;0.40;99.90
43673;DHT22;41723;49.326;8.430;2023-12-04T02:57:09;0.40;99.90
43673;DHT22;41723;49.326;8.430;2023-12-04T02:59:35;0.50;99.90
43673;DHT22;41723;49.326;8.430;2023-12-04T03:02:00;0.50;99.90
43673;DHT22;41723;49.326;8.430;2023-12-04T03:04:27;0.50;99.90
43673;DHT22;41723;49.326;8.430;2023-12-04T03:06:53;0.50;99.90
43673;DHT22;41723;49.326;8.430;2023-12-04T03:09:18;0.50;99.90
43673;DHT22;41723;49.326;8.430;2023-12-04T03:11:44;0.50;99.90
43673;DHT22;41723;49.326;8.430;2023-12-04T03:14:10;0.50;99.90
43673;DHT22;41723;49.326;8.430;2023-12-04T03:16:35;0.50;99.90
43673;DHT22;41723;49.326;8.430;2023-12-04T03:19:01;0.60;99.90
43673;DHT22;41723;49.326;8.430;2023-12-04T03:21:26;0.50;99.90
43673;DHT22;41723;49.326;8.430;2023-12-04T03:23:54;0.60;99.90
43673;DHT22;41723;49.326;8.430;2023-12-04T03:26:19;0.70;99.90
43673;DHT22;41723;49.326;8.430;2023-12-04T03:28:45;0.70;99.90
43673;DHT22;41723;49.326;8.430;2023-12-04T03:31:10;0.60;99.90
43673;DHT22;41723;49.326;8.430;2023-12-04T03:33:36;0.60;99.90
43673;DHT22;41723;49.326;8.430;2023-12-04T03:36:02;0.50;99.90
43673;DHT22;41723;49.326;8.430;2023-12-04T03:38:27;0.50;99.90
43673;DHT22;41723;49.326;8.430;2023-12-04T03:40:53;0.50;99.90
43673;DHT22;41723;49.326;8.430;2023-12-04T03:43:19;0.50;99.90
43673;DHT22;41723;49.326;8.430;2023-12-04T03:45:44;0.50;99.90
43673;DHT22;41723;49.326;8.430;2023-12-04T03:48:10;0.40;99.90
43673;DHT22;41723;49.326;8.430;2023-12-04T03:50:35;0.50;99.90
43673;DHT22;41723;49.326;8.430;2023-12-04T03:53:01;0.50;99.90
43673;DHT22;41723;49.326;8.430;2023-12-04T03:55:27;0.50;99.90
43673;DHT22;41723;49.326;8.430;2023-12-04T03:57:53;0.60;99.90
43673;DHT22;41723;49.326;8.430;2023-12-04T04:00:18;0.70;99.90
43673;DHT22;41723;49.326;8.430;2023-12-04T04:02:44;0.70;99.90
43673;DHT22;41723;49.326;8.430;2023-12-04T04:05:10;0.80;99.90
43673;DHT22;41723;49.326;8.430;2023-12-04T04:07:35;0.80;99.90
43673;DHT22;41723;49.326;8.430;2023-12-04T04:10:01;0.80;99.90
43673;DHT22;41723;49.326;8.430;2023-12-04T04:12:30;0.70;99.90
43673;DHT22;41723;49.326;8.430;2023-12-04T04:14:56;0.70;99.90
43673;DHT22;41723;49.326;8.430;2023-12-04T04:17:21;0.70;99.90
43673;DHT22;41723;49.326;8.430;2023-12-04T04:19:47;0.60;99.90
43673;DHT22;41723;49.326;8.430;2023-12-04T04:22:13;0.60;99.90
43673;DHT22;41723;49.326;8.430;2023-12-04T04:24:38;0.60;99.90
43673;DHT22;41723;49.326;8.430;2023-12-04T04:27:04;0.50;99.90
43673;DHT22;41723;49.326;8.430;2023-12-04T04:29:29;0.60;99.90
43673;DHT22;41723;49.326;8.430;2023-12-04T04:31:55;0.60;99.90
43673;DHT22;41723;49.326;8.430;2023-12-04T04:34:21;0.70;99.90
43673;DHT22;41723;49.326;8.430;2023-12-04T04:36:46;0.70;99.90
43673;DHT22;41723;49.326;8.430;2023-12-04T04:39:13;0.70;99.90
43673;DHT22;41723;49.326;8.430;2023-12-04T04:41:39;0.70;99.90
43673;DHT22;41723;49.326;8.430;2023-12-04T04:44:05;0.70;99.90
43673;DHT22;41723;49.326;8.430;2023-12-04T04:46:31;0.70;99.90
43673;DHT22;41723;49.326;8.430;2023-12-04T04:48:56;0.90;99.90
43673;DHT22;41723;49.326;8.430;2023-12-04T04:51:22;0.80;99.90
43673;DHT22;41723;49.326;8.430;2023-12-04T04:53:48;0.80;99.90
43673;DHT22;41723;49.326;8.430;2023-12-04T04:56:14;0.80;99.90
43673;DHT22;41723;49.326;8.430;2023-12-04T04:58:40;0.80;99.90
43673;DHT22;41723;49.326;8.430;2023-12-04T05:01:05;0.90;99.90
43673;DHT22;41723;49.326;8.430;2023-12-04T05:03:31;1.00;99.90
43673;DHT22;41723;49.326;8.430;2023-12-04T05:05:57;1.00;99.90
43673;DHT22;41723;49.326;8.430;2023-12-04T05:08:22;0.90;99.90
43673;DHT22;41723;49.326;8.430;2023-12-04T05:10:48;1.00;99.90
43673;DHT22;41723;49.326;8.430;2023-12-04T05:13:13;1.10;99.90
43673;DHT22;41723;49.326;8.430;2023-12-04T05:15:39;1.00;99.90
43673;DHT22;41723;49.326;8.430;2023-12-04T05:18:05;0.90;99.90
43673;DHT22;41723;49.326;8.430;2023-12-04T05:20:30;0.90;99.90
43673;DHT22;41723;49.326;8.430;2023-12-04T05:22:56;0.90;99.90
43673;DHT22;41723;49.326;8.430;2023-12-04T05:25:22;0.80;99.90
43673;DHT22;41723;49.326;8.430;2023-12-04T05:27:48;0.80;99.90
43673;DHT22;41723;49.326;8.430;2023-12-04T05:30:13;0.80;99.90
43673;DHT22;41723;49.326;8.430;2023-12-04T05:32:39;0.70;99.90
43673;DHT22;41723;49.326;8.430;2023-12-04T05:35:04;0.60;99.90
43673;DHT22;41723;49.326;8.430;2023-12-04T05:37:30;0.70;99.90
43673;DHT22;41723;49.326;8.430;2023-12-04T05:39:56;0.80;99.90
43673;DHT22;41723;49.326;8.430;2023-12-04T05:42:22;0.70;99.90
43673;DHT22;41723;49.326;8.430;2023-12-04T05:44:47;0.70;99.90
43673;DHT22;41723;49.326;8.430;2023-12-04T05:47:13;0.80;99.90
43673;DHT22;41723;49.326;8.430;2023-12-04T05:49:40;0.80;99.90
43673;DHT22;41723;49.326;8.430;2023-12-04T05:52:05;0.90;99.90
43673;DHT22;41723;49.326;8.430;2023-12-04T05:54:31;0.90;99.90
43673;DHT22;41723;49.326;8.430;2023-12-04T05:56:57;0.90;99.90
43673;DHT22;41723;49.326;8.430;2023-12-04T05:59:22;0.80;99.90
43673;DHT22;41723;49.326;8.430;2023-12-04T06:01:48;0.90;99.90
43673;DHT22;41723;49.326;8.430;2023-12-04T06:04:13;0.80;99.90
43673;DHT22;41723;49.326;8.430;2023-12-04T06:06:39;0.80;99.90
43673;DHT22;41723;49.326;8.430;2023-12-04T06:09:05;0.90;99.90
43673;DHT22;41723;49.326;8.430;2023-12-04T06:11:30;0.90;99.90
43673;DHT22;41723;49.326;8.430;2023-12-04T06:13:56;0.90;99.90
43673;DHT22;41723;49.326;8.430;2023-12-04T06:16:22;1.00;99.90
43673;DHT22;41723;49.326;8.430;2023-12-04T06:18:47;0.90;99.90
43673;DHT22;41723;49.326;8.430;2023-12-04T06:21:13;0.80;99.90
43673;DHT22;41723;49.326;8.430;2023-12-04T06:23:38;0.80;99.90
43673;DHT22;41723;49.326;8.430;2023-12-04T06:26:04;0.90;99.90
43673;DHT22;41723;49.326;8.430;2023-12-04T06:28:30;0.90;99.90
43673;DHT22;41723;49.326;8.430;2023-12-04T06:30:56;0.90;99.90
43673;DHT22;41723;49.326;8.430;2023-12-04T06:33:22;0.90;99.90
43673;DHT22;41723;49.326;8.430;2023-12-04T06:35:47;0.90;99.90
43673;DHT22;41723;49.326;8.430;2023-12-04T06:38:15;0.90;99.90
43673;DHT22;41723;49.326;8.430;2023-12-04T06:40:41;0.90;99.90
43673;DHT22;41723;49.326;8.430;2023-12-04T06:43:07;0.90;99.90
43673;DHT22;41723;49.326;8.430;2023-12-04T06:45:33;0.90;99.90
43673;DHT22;41723;49.326;8.430;2023-12-04T06:47:59;0.90;99.90
43673;DHT22;41723;49.326;8.430;2023-12-04T06:50:25;0.90;99.90
43673;DHT22;41723;49.326;8.430;2023-12-04T06:52:51;0.90;99.90
43673;DHT22;41723;49.326;8.430;2023-12-04T06:55:16;1.00;99.90
43673;DHT22;41723;49.326;8.430;2023-12-04T06:57:42;1.00;99.90
43673;DHT22;41723;49.326;8.430;2023-12-04T07:00:08;0.80;99.90
43673;DHT22;41723;49.326;8.430;2023-12-04T07:02:33;0.90;99.90
43673;DHT22;41723;49.326;8.430;2023-12-04T07:04:59;1.00;99.90
43673;DHT22;41723;49.326;8.430;2023-12-04T07:07:25;1.00;99.90
43673;DHT22;41723;49.326;8.430;2023-12-04T07:09:50;0.90;99.90
43673;DHT22;41723;49.326;8.430;2023-12-04T07:12:16;0.80;99.90
43673;DHT22;41723;49.326;8.430;2023-12-04T07:14:41;0.90;99.90
43673;DHT22;41723;49.326;8.430;2023-12-04T07:17:07;0.90;99.90
43673;DHT22;41723;49.326;8.430;2023-12-04T07:19:33;0.80;99.90
43673;DHT22;41723;49.326;8.430;2023-12-04T07:21:58;0.80;99.90
43673;DHT22;41723;49.326;8.430;2023-12-04T07:24:24;0.70;99.90
43673;DHT22;41723;49.326;8.430;2023-12-04T07:26:51;0.70;99.90
43673;DHT22;41723;49.326;8.430;2023-12-04T07:29:17;0.70;99.90
43673;DHT22;41723;49.326;8.430;2023-12-04T07:31:42;0.70;99.90
43673;DHT22;41723;49.326;8.430;2023-12-04T07:34:09;0.60;99.90
43673;DHT22;41723;49.326;8.430;2023-12-04T07:36:34;0.60;99.90
43673;DHT22;41723;49.326;8.430;2023-12-04T07:39:00;0.70;99.90
43673;DHT22;41723;49.326;8.430;2023-12-04T07:41:26;0.60;99.90
43673;DHT22;41723;49.326;8.430;2023-12-04T07:43:51;0.60;99.90
43673;DHT22;41723;49.326;8.430;2023-12-04T07:46:17;0.70;99.90
43673;DHT22;41723;49.326;8.430;2023-12-04T07:48:42;0.80;99.90
43673;DHT22;41723;49.326;8.430;2023-12-04T07:51:09;0.80;99.90
43673;DHT22;41723;49.326;8.430;2023-12-04T07:53:35;0.80;99.90
43673;DHT22;41723;49.326;8.430;2023-12-04T07:56:01;0.80;99.90
43673;DHT22;41723;49.326;8.430;2023-12-04T07:58:28;0.70;99.90
43673;DHT22;41723;49.326;8.430;2023-12-04T08:00:54;0.80;99.90
43673;DHT22;41723;49.326;8.430;2023-12-04T08:03:19;0.70;99.90
43673;DHT22;41723;49.326;8.430;2023-12-04T08:05:45;0.90;99.90
43673;DHT22;41723;49.326;8.430;2023-12-04T08:08:11;0.80;99.90
43673;DHT22;41723;49.326;8.430;2023-12-04T08:10:36;0.80;99.90
43673;DHT22;41723;49.326;8.430;2023-12-04T08:13:02;0.90;99.90
43673;DHT22;41723;49.326;8.430;2023-12-04T08:15:28;0.90;99.90
43673;DHT22;41723;49.326;8.430;2023-12-04T08:17:54;1.10;99.90
43673;DHT22;41723;49.326;8.430;2023-12-04T08:20:21;1.10;99.90
43673;DHT22;41723;49.326;8.430;2023-12-04T08:22:47;1.10;99.90
43673;DHT22;41723;49.326;8.430;2023-12-04T08:25:13;1.20;99.90
43673;DHT22;41723;49.326;8.430;2023-12-04T08:27:39;1.20;99.90
43673;DHT22;41723;49.326;8.430;2023-12-04T08:30:05;1.10;99.90
43673;DHT22;41723;49.326;8.430;2023-12-04T08:32:31;1.10;99.90
43673;DHT22;41723;49.326;8.430;2023-12-04T08:34:56;1.10;99.90
43673;DHT22;41723;49.326;8.430;2023-12-04T08:37:22;1.20;99.90
43673;DHT22;41723;49.326;8.430;2023-12-04T08:39:47;1.20;99.90
43673;DHT22;41723;49.326;8.430;2023-12-04T08:42:13;1.20;99.90
43673;DHT22;41723;49.326;8.430;2023-12-04T08:44:38;1.20;99.90
43673;DHT22;41723;49.326;8.430;2023-12-04T08:47:05;1.30;99.90
43673;DHT22;41723;49.326;8.430;2023-12-04T08:49:31;1.40;99.90
43673;DHT22;41723;49.326;8.430;2023-12-04T08:51:57;1.30;99.90
43673;DHT22;41723;49.326;8.430;2023-12-04T08:54:23;1.40;99.90
43673;DHT22;41723;49.326;8.430;2023-12-04T08:56:49;1.40;99.90
43673;DHT22;41723;49.326;8.430;2023-12-04T08:59:15;1.30;99.80
43673;DHT22;41723;49.326;8.430;2023-12-04T09:01:42;1.20;99.90
43673;DHT22;41723;49.326;8.430;2023-12-04T09:04:08;1.10;99.90
43673;DHT22;41723;49.326;8.430;2023-12-04T09:06:33;1.20;99.90
43673;DHT22;41723;49.326;8.430;2023-12-04T09:08:59;1.10;99.90
43673;DHT22;41723;49.326;8.430;2023-12-04T09:11:25;1.20;99.90
43673;DHT22;41723;49.326;8.430;2023-12-04T09:13:50;1.30;99.90
43673;DHT22;41723;49.326;8.430;2023-12-04T09:16:16;1.40;99.90
43673;DHT22;41723;49.326;8.430;2023-12-04T09:18:41;1.40;99.90
43673;DHT22;41723;49.326;8.430;2023-12-04T09:21:07;1.40;99.80
43673;DHT22;41723;49.326;8.430;2023-12-04T09:23:34;1.30;99.80
43673;DHT22;41723;49.326;8.430;2023-12-04T09:26:00;1.40;99.90
43673;DHT22;41723;49.326;8.430;2023-12-04T09:28:25;1.40;99.90
43673;DHT22;41723;49.326;8.430;2023-12-04T09:30:51;1.40;99.70
43673;DHT22;41723;49.326;8.430;2023-12-04T09:33:16;1.40;99.90
43673;DHT22;41723;49.326;8.430;2023-12-04T09:35:42;1.50;99.90
43673;DHT22;41723;49.326;8.430;2023-12-04T09:38:08;1.50;99.90
43673;DHT22;41723;49.326;8.430;2023-12-04T09:40:33;1.40;99.70
43673;DHT22;41723;49.326;8.430;2023-12-04T09:42:59;1.50;99.90
43673;DHT22;41723;49.326;8.430;2023-12-04T09:45:25;1.50;99.80
43673;DHT22;41723;49.326;8.430;2023-12-04T09:47:50;1.40;99.60
43673;DHT22;41723;49.326;8.430;2023-12-04T09:50:16;1.40;99.90
43673;DHT22;41723;49.326;8.430;2023-12-04T09:52:49;1.30;99.50
43673;DHT22;41723;49.326;8.430;2023-12-04T09:55:16;1.30;99.90
43673;DHT22;41723;49.326;8.430;2023-12-04T09:57:42;1.40;99.90
43673;DHT22;41723;49.326;8.430;2023-12-04T10:00:08;1.50;99.90
43673;DHT22;41723;49.326;8.430;2023-12-04T10:02:38;1.50;99.90
43673;DHT22;41723;49.326;8.430;2023-12-04T10:05:05;1.50;99.90
43673;DHT22;41723;49.326;8.430;2023-12-04T10:07:31;1.50;99.90
43673;DHT22;41723;49.326;8.430;2023-12-04T10:09:57;1.50;99.70
43673;DHT22;41723;49.326;8.430;2023-12-04T10:12:22;1.40;99.70
43673;DHT22;41723;49.326;8.430;2023-12-04T10:17:32;1.60;99.90
43673;DHT22;41723;49.326;8.430;2023-12-04T10:20:08;1.60;99.80
43673;DHT22;41723;49.326;8.430;2023-12-04T10:22:51;1.70;99.90
43673;DHT22;41723;49.326;8.430;2023-12-04T10:25:18;1.70;99.70
43673;DHT22;41723;49.326;8.430;2023-12-04T10:27:44;1.70;99.60
43673;DHT22;41723;49.326;8.430;2023-12-04T10:30:10;1.70;99.90
43673;DHT22;41723;49.326;8.430;2023-12-04T10:32:47;1.60;99.90
43673;DHT22;41723;49.326;8.430;2023-12-04T10:35:12;1.90;99.90
43673;DHT22;41723;49.326;8.430;2023-12-04T10:37:39;1.80;99.90
43673;DHT22;41723;49.326;8.430;2023-12-04T10:40:05;1.80;99.90
43673;DHT22;41723;49.326;8.430;2023-12-04T10:42:34;1.80;99.90
43673;DHT22;41723;49.326;8.430;2023-12-04T10:45:00;1.90;99.90
43673;DHT22;41723;49.326;8.430;2023-12-04T10:47:29;1.80;99.90
43673;DHT22;41723;49.326;8.430;2023-12-04T10:49:56;1.80;99.90
43673;DHT22;41723;49.326;8.430;2023-12-04T10:52:21;1.80;99.90
43673;DHT22;41723;49.326;8.430;2023-12-04T10:54:47;1.70;99.90
43673;DHT22;41723;49.326;8.430;2023-12-04T10:57:15;1.70;99.90
43673;DHT22;41723;49.326;8.430;2023-12-04T10:59:41;1.70;99.90
43673;DHT22;41723;49.326;8.430;2023-12-04T11:02:07;1.60;99.90
43673;DHT22;41723;49.326;8.430;2023-12-04T11:04:39;1.60;99.90
43673;DHT22;41723;49.326;8.430;2023-12-04T11:07:05;1.60;99.90
43673;DHT22;41723;49.326;8.430;2023-12-04T11:09:31;1.60;99.90
43673;DHT22;41723;49.326;8.430;2023-12-04T11:12:01;1.70;99.90
43673;DHT22;41723;49.326;8.430;2023-12-04T11:14:29;1.70;99.90
43673;DHT22;41723;49.326;8.430;2023-12-04T11:17:07;1.70;99.90
43673;DHT22;41723;49.326;8.430;2023-12-04T11:19:47;1.50;99.90
43673;DHT22;41723;49.326;8.430;2023-12-04T11:22:14;1.60;99.90
43673;DHT22;41723;49.326;8.430;2023-12-04T11:24:39;1.60;99.90
43673;DHT22;41723;49.326;8.430;2023-12-04T11:27:06;1.70;99.90
43673;DHT22;41723;49.326;8.430;2023-12-04T11:29:32;1.60;99.90
43673;DHT22;41723;49.326;8.430;2023-12-04T11:31:57;1.60;99.90
43673;DHT22;41723;49.326;8.430;2023-12-04T11:34:24;1.50;99.90
43673;DHT22;41723;49.326;8.430;2023-12-04T11:36:50;1.60;99.90
43673;DHT22;41723;49.326;8.430;2023-12-04T11:39:16;1.50;99.90
43673;DHT22;41723;49.326;8.430;2023-12-04T11:41:41;1.50;99.90
43673;DHT22;41723;49.326;8.430;2023-12-04T11:44:13;1.40;99.90
43673;DHT22;41723;49.326;8.430;2023-12-04T11:46:41;1.50;99.90
43673;DHT22;41723;49.326;8.430;2023-12-04T11:49:26;1.60;99.90
43673;DHT22;41723;49.326;8.430;2023-12-04T11:51:54;1.50;99.90
43673;DHT22;41723;49.326;8.430;2023-12-04T11:54:20;1.50;99.90
43673;DHT22;41723;49.326;8.430;2023-12-04T11:56:58;1.50;99.90
43673;DHT22;41723;49.326;8.430;2023-12-04T11:59:24;1.50;99.90
43673;DHT22;41723;49.326;8.430;2023-12-04T12:01:50;1.40;99.90
43673;DHT22;41723;49.326;8.430;2023-12-04T12:04:17;1.30;99.90
43673;DHT22;41723;49.326;8.430;2023-12-04T12:06:43;1.30;99.90
43673;DHT22;41723;49.326;8.430;2023-12-04T12:09:09;1.40;99.90
43673;DHT22;41723;49.326;8.430;2023-12-04T12:11:35;1.40;99.90
43673;DHT22;41723;49.326;8.430;2023-12-04T12:14:01;1.50;99.90
43673;DHT22;41723;49.326;8.430;2023-12-04T12:16:27;1.60;99.90
43673;DHT22;41723;49.326;8.430;2023-12-04T12:18:53;1.60;99.90
43673;DHT22;41723;49.326;8.430;2023-12-04T12:21:18;1.60;99.90
43673;DHT22;41723;49.326;8.430;2023-12-04T12:23:44;1.50;99.90
43673;DHT22;41723;49.326;8.430;2023-12-04T12:26:10;1.50;99.90
43673;DHT22;41723;49.326;8.430;2023-12-04T12:28:36;1.50;99.90
43673;DHT22;41723;49.326;8.430;2023-12-04T12:31:02;1.40;99.90
43673;DHT22;41723;49.326;8.430;2023-12-04T12:33:28;1.50;99.90
43673;DHT22;41723;49.326;8.430;2023-12-04T12:35:55;1.60;99.90
43673;DHT22;41723;49.326;8.430;2023-12-04T12:38:21;1.70;99.90
43673;DHT22;41723;49.326;8.430;2023-12-04T12:40:46;1.70;99.90
43673;DHT22;41723;49.326;8.430;2023-12-04T12:43:12;1.70;99.90
43673;DHT22;41723;49.326;8.430;2023-12-04T12:45:41;1.70;99.90
43673;DHT22;41723;49.326;8.430;2023-12-04T12:48:14;1.70;99.90
43673;DHT22;41723;49.326;8.430;2023-12-04T12:50:43;1.70;99.90
43673;DHT22;41723;49.326;8.430;2023-12-04T12:53:12;1.80;99.90
43673;DHT22;41723;49.326;8.430;2023-12-04T12:55:43;1.80;99.90
43673;DHT22;41723;49.326;8.430;2023-12-04T12:58:09;1.90;99.90
43673;DHT22;41723;49.326;8.430;2023-12-04T13:00:35;2.00;99.90
43673;DHT22;41723;49.326;8.430;2023-12-04T13:03:01;2.00;99.90
43673;DHT22;41723;49.326;8.430;2023-12-04T13:05:27;2.00;99.90
43673;DHT22;41723;49.326;8.430;2023-12-04T13:07:53;2.00;99.90
43673;DHT22;41723;49.326;8.430;2023-12-04T13:10:19;2.00;99.90
43673;DHT22;41723;49.326;8.430;2023-12-04T13:12:45;2.00;99.90
43673;DHT22;41723;49.326;8.430;2023-12-04T13:15:11;2.00;99.90
43673;DHT22;41723;49.326;8.430;2023-12-04T13:17:36;2.00;99.90
43673;DHT22;41723;49.326;8.430;2023-12-04T13:20:02;2.00;99.90
43673;DHT22;41723;49.326;8.430;2023-12-04T13:22:29;1.90;99.90
43673;DHT22;41723;49.326;8.430;2023-12-04T13:24:55;1.90;99.90
43673;DHT22;41723;49.326;8.430;2023-12-04T13:27:21;1.90;99.90
43673;DHT22;41723;49.326;8.430;2023-12-04T13:29:46;2.00;99.90
43673;DHT22;41723;49.326;8.430;2023-12-04T13:32:15;2.00;99.90
43673;DHT22;41723;49.326;8.430;2023-12-04T13:34:41;2.00;99.90
43673;DHT22;41723;49.326;8.430;2023-12-04T13:37:08;2.00;99.90
43673;DHT22;41723;49.326;8.430;2023-12-04T13:39:34;2.00;99.90
43673;DHT22;41723;49.326;8.430;2023-12-04T13:42:13;2.10;99.90
43673;DHT22;41723;49.326;8.430;2023-12-04T13:44:57;1.90;99.90
43673;DHT22;41723;49.326;8.430;2023-12-04T13:47:23;1.90;99.90
43673;DHT22;41723;49.326;8.430;2023-12-04T13:49:48;2.00;99.90
43673;DHT22;41723;49.326;8.430;2023-12-04T13:52:16;2.00;99.90
43673;DHT22;41723;49.326;8.430;2023-12-04T13:54:45;2.00;99.90
43673;DHT22;41723;49.326;8.430;2023-12-04T13:57:14;2.00;99.90
43673;DHT22;41723;49.326;8.430;2023-12-04T13:59:47;2.00;99.90
43673;DHT22;41723;49.326;8.430;2023-12-04T14:02:15;2.00;99.90
43673;DHT22;41723;49.326;8.430;2023-12-04T14:04:41;2.00;99.90
43673;DHT22;41723;49.326;8.430;2023-12-04T14:07:09;2.10;99.90
43673;DHT22;41723;49.326;8.430;2023-12-04T14:09:37;2.10;99.90
43673;DHT22;41723;49.326;8.430;2023-12-04T14:12:02;2.10;99.90
43673;DHT22;41723;49.326;8.430;2023-12-04T14:14:29;2.10;99.90
43673;DHT22;41723;49.326;8.430;2023-12-04T14:16:54;2.10;99.90
43673;DHT22;41723;49.326;8.430;2023-12-04T14:19:20;2.20;99.90
43673;DHT22;41723;49.326;8.430;2023-12-04T14:21:47;2.20;99.90
43673;DHT22;41723;49.326;8.430;2023-12-04T14:24:15;2.20;99.90
43673;DHT22;41723;49.326;8.430;2023-12-04T14:26:41;2.20;99.90
43673;DHT22;41723;49.326;8.430;2023-12-04T14:29:07;2.20;99.90
43673;DHT22;41723;49.326;8.430;2023-12-04T14:31:33;2.30;99.90
43673;DHT22;41723;49.326;8.430;2023-12-04T14:33:59;2.30;99.90
43673;DHT22;41723;49.326;8.430;2023-12-04T14:36:25;2.20;99.90
43673;DHT22;41723;49.326;8.430;2023-12-04T14:38:52;2.30;99.90
43673;DHT22;41723;49.326;8.430;2023-12-04T14:41:17;2.30;99.90
43673;DHT22;41723;49.326;8.430;2023-12-04T14:43:43;2.30;99.90
43673;DHT22;41723;49.326;8.430;2023-12-04T14:46:09;2.30;99.90
43673;DHT22;41723;49.326;8.430;2023-12-04T14:48:36;2.40;99.90
43673;DHT22;41723;49.326;8.430;2023-12-04T14:51:02;2.40;99.90
43673;DHT22;41723;49.326;8.430;2023-12-04T14:53:29;2.50;99.90
43673;DHT22;41723;49.326;8.430;2023-12-04T14:56:01;2.50;99.90
43673;DHT22;41723;49.326;8.430;2023-12-04T14:58:42;2.50;99.90
43673;DHT22;41723;49.326;8.430;2023-12-04T15:01:11;2.60;99.90
43673;DHT22;41723;49.326;8.430;2023-12-04T15:03:55;2.60;99.90
43673;DHT22;41723;49.326;8.430;2023-12-04T15:06:39;2.60;99.90
43673;DHT22;41723;49.326;8.430;2023-12-04T15:09:17;2.50;99.90
43673;DHT22;41723;49.326;8.430;2023-12-04T15:12:06;2.60;99.90
43673;DHT22;41723;49.326;8.430;2023-12-04T15:14:37;2.60;99.90
43673;DHT22;41723;49.326;8.430;2023-12-04T15:17:22;2.60;99.90
43673;DHT22;41723;49.326;8.430;2023-12-04T15:19:57;2.70;99.90
43673;DHT22;41723;49.326;8.430;2023-12-04T15:22:34;2.70;99.90
43673;DHT22;41723;49.326;8.430;2023-12-04T15:25:01;2.70;99.90
43673;DHT22;41723;49.326;8.430;2023-12-04T15:27:26;2.70;99.90
43673;DHT22;41723;49.326;8.430;2023-12-04T15:29:52;2.70;99.90
43673;DHT22;41723;49.326;8.430;2023-12-04T15:32:17;2.60;99.90
43673;DHT22;41723;49.326;8.430;2023-12-04T15:34:43;2.70;99.90
43673;DHT22;41723;49.326;8.430;2023-12-04T15:37:08;2.80;99.90
43673;DHT22;41723;49.326;8.430;2023-12-04T15:39:34;2.70;99.90
43673;DHT22;41723;49.326;8.430;2023-12-04T15:42:00;2.70;99.90
43673;DHT22;41723;49.326;8.430;2023-12-04T15:44:26;2.70;99.90